Time,TemperatureF,DewpointF,PressureIn,WindDirection,WindDirectionDegrees,WindSpeedMPH,WindSpeedGustMPH,Humidity,HourlyPrecipIn,Conditions,Clouds,dailyrainin,SoftwareType,DateUTC
2013-10-17 00:07:00,64.8,64.2,29.89,WNW,292,0.0,-999.0,98,-99.99,,,0.00,Acu-Link.com,2013-10-17 05:07:00,
2013-10-17 00:22:00,64.8,64.2,29.89,NNE,22,0.0,-999.0,98,-99.99,,,0.00,Acu-Link.com,2013-10-17 05:22:00,
2013-10-17 00:37:00,64.6,64.0,29.88,NNE,22,2.2,-999.0,98,-99.99,,,0.01,Acu-Link.com,2013-10-17 05:37:00,
2013-10-17 00:52:00,64.6,64.0,29.88,NNE,22,0.0,-999.0,98,-99.99,,,0.02,Acu-Link.com,2013-10-17 05:52:00,
2013-10-17 01:07:00,64.6,64.0,29.87,NNW,337,2.7,-999.0,98,-99.99,,,0.03,Acu-Link.com,2013-10-17 06:07:00,
2013-10-17 01:24:00,64.6,64.0,29.87,South,180,1.7,-999.0,98,-99.99,,,0.04,Acu-Link.com,2013-10-17 06:24:00,
2013-10-17 01:39:00,64.4,63.8,29.88,NNW,337,1.1,-999.0,98,-99.99,,,0.05,Acu-Link.com,2013-10-17 06:39:00,
2013-10-17 01:54:00,64.2,63.6,29.87,West,270,2.2,-999.0,98,-99.99,,,0.06,Acu-Link.com,2013-10-17 06:54:00,
2013-10-17 02:10:00,64.2,63.6,29.87,East,90,2.2,-999.0,98,-99.99,,,0.06,Acu-Link.com,2013-10-17 07:10:00,
2013-10-17 02:25:00,64.0,63.4,29.87,WNW,292,1.7,-999.0,98,-99.99,,,0.06,Acu-Link.com,2013-10-17 07:25:00,
2013-10-17 02:42:00,64.0,63.4,29.87,West,270,0.0,-999.0,98,-99.99,,,0.06,Acu-Link.com,2013-10-17 07:42:00,
2013-10-17 02:58:00,63.9,63.3,29.87,WNW,292,1.7,-999.0,98,-99.99,,,0.06,Acu-Link.com,2013-10-17 07:58:00,
2013-10-17 03:13:00,63.9,63.3,29.86,West,270,0.0,-999.0,98,-99.99,,,0.06,Acu-Link.com,2013-10-17 08:13:00,
2013-10-17 03:29:00,63.7,63.1,29.86,ENE,67,0.0,-999.0,98,-99.99,,,0.06,Acu-Link.com,2013-10-17 08:29:00,
2013-10-17 03:44:00,63.9,63.3,29.87,NW,315,1.7,-999.0,98,-99.99,,,0.06,Acu-Link.com,2013-10-17 08:44:00,
2013-10-17 04:00:00,63.9,63.3,29.86,NNE,22,3.2,-999.0,98,-99.99,,,0.06,Acu-Link.com,2013-10-17 09:00:00,
2013-10-17 04:15:00,63.9,63.3,29.85,West,270,0.0,-999.0,98,-99.99,,,0.06,Acu-Link.com,2013-10-17 09:15:00,
2013-10-17 04:30:00,63.9,63.3,29.86,NNE,22,2.2,-999.0,98,-99.99,,,0.06,Acu-Link.com,2013-10-17 09:30:00,
2013-10-17 04:45:00,63.3,62.7,29.87,West,270,2.7,-999.0,98,-99.99,,,0.06,Acu-Link.com,2013-10-17 09:45:00,
2013-10-17 05:00:00,63.1,62.5,29.86,WNW,292,2.2,-999.0,98,-99.99,,,0.06,Acu-Link.com,2013-10-17 10:00:00,
2013-10-17 05:15:00,63.1,62.5,29.87,NE,45,2.2,-999.0,98,-99.99,,,0.06,Acu-Link.com,2013-10-17 10:15:00,
2013-10-17 05:30:00,63.0,62.4,29.88,NW,315,3.7,-999.0,98,-99.99,,,0.06,Acu-Link.com,2013-10-17 10:30:00,
2013-10-17 05:45:00,63.0,62.4,29.88,North,0,2.7,-999.0,98,-99.99,,,0.06,Acu-Link.com,2013-10-17 10:45:00,
2013-10-17 06:01:00,62.6,62.0,29.88,SW,225,1.7,-999.0,98,-99.99,,,0.06,Acu-Link.com,2013-10-17 11:01:00,
2013-10-17 06:16:00,62.6,62.0,29.88,NNE,22,3.7,-999.0,98,-99.99,,,0.06,Acu-Link.com,2013-10-17 11:16:00,
2013-10-17 06:31:00,62.6,62.0,29.88,North,0,4.7,-999.0,98,-99.99,,,0.06,Acu-Link.com,2013-10-17 11:31:00,
2013-10-17 06:46:00,62.2,61.6,29.89,NNE,22,2.7,-999.0,98,-99.99,,,0.06,Acu-Link.com,2013-10-17 11:46:00,
2013-10-17 07:01:00,61.9,61.3,29.89,NNE,22,2.7,-999.0,98,-99.99,,,0.06,Acu-Link.com,2013-10-17 12:01:00,
2013-10-17 07:17:00,61.5,60.9,29.90,NNE,22,2.7,-999.0,98,-99.99,,,0.06,Acu-Link.com,2013-10-17 12:17:00,
2013-10-17 07:32:00,61.5,60.9,29.91,North,0,4.2,-999.0,98,-99.99,,,0.06,Acu-Link.com,2013-10-17 12:32:00,
2013-10-17 07:47:00,61.0,60.4,29.91,West,270,3.7,-999.0,98,-99.99,,,0.06,Acu-Link.com,2013-10-17 12:47:00,
2013-10-17 08:02:00,60.8,60.2,29.92,North,0,4.7,-999.0,98,-99.99,,,0.06,Acu-Link.com,2013-10-17 13:02:00,
2013-10-17 08:17:00,60.8,60.2,29.93,West,270,2.7,-999.0,98,-99.99,,,0.06,Acu-Link.com,2013-10-17 13:17:00,
2013-10-17 08:32:00,60.8,60.2,29.93,NNE,22,3.7,-999.0,98,-99.99,,,0.06,Acu-Link.com,2013-10-17 13:32:00,
2013-10-17 08:47:00,61.3,60.7,29.93,North,0,3.7,-999.0,98,-99.99,,,0.06,Acu-Link.com,2013-10-17 13:47:00,
2013-10-17 09:02:00,61.7,61.1,29.94,North,0,2.2,-999.0,98,-99.99,,,0.06,Acu-Link.com,2013-10-17 14:02:00,
2013-10-17 09:17:00,61.9,61.3,29.95,WNW,292,2.7,-999.0,98,-99.99,,,0.06,Acu-Link.com,2013-10-17 14:17:00,
2013-10-17 09:32:00,62.1,61.5,29.96,North,0,4.7,-999.0,98,-99.99,,,0.06,Acu-Link.com,2013-10-17 14:32:00,
2013-10-17 09:48:00,62.1,61.5,29.95,NW,315,4.2,-999.0,98,-99.99,,,0.06,Acu-Link.com,2013-10-17 14:48:00,
2013-10-17 10:03:00,61.9,61.3,29.96,NW,315,4.7,-999.0,98,-99.99,,,0.06,Acu-Link.com,2013-10-17 15:03:00,
2013-10-17 10:18:00,62.6,62.0,29.96,WNW,292,3.2,-999.0,98,-99.99,,,0.06,Acu-Link.com,2013-10-17 15:18:00,
2013-10-17 10:33:00,62.6,62.0,29.97,ESE,112,3.7,-999.0,98,-99.99,,,0.06,Acu-Link.com,2013-10-17 15:33:00,
2013-10-17 10:48:00,62.1,61.5,29.97,West,270,4.2,-999.0,98,-99.99,,,0.06,Acu-Link.com,2013-10-17 15:48:00,
2013-10-17 11:03:00,62.2,61.6,29.98,NW,315,4.7,-999.0,98,-99.99,,,0.06,Acu-Link.com,2013-10-17 16:03:00,
2013-10-17 11:18:00,61.7,61.1,29.98,NNE,22,2.2,-999.0,98,-99.99,,,0.06,Acu-Link.com,2013-10-17 16:18:00,
2013-10-17 11:33:00,62.1,61.5,29.98,East,90,1.7,-999.0,98,-99.99,,,0.06,Acu-Link.com,2013-10-17 16:33:00,
2013-10-17 11:48:00,63.0,62.4,29.98,WSW,247,2.2,-999.0,98,-99.99,,,0.06,Acu-Link.com,2013-10-17 16:48:00,
2013-10-17 12:04:00,64.4,63.8,29.97,North,0,4.7,-999.0,98,-99.99,,,0.06,Acu-Link.com,2013-10-17 17:04:00,
2013-10-17 12:19:00,64.6,64.0,29.97,WNW,292,4.2,-999.0,98,-99.99,,,0.06,Acu-Link.com,2013-10-17 17:19:00,
2013-10-17 12:34:00,64.9,64.3,29.95,North,0,4.7,-999.0,98,-99.99,,,0.06,Acu-Link.com,2013-10-17 17:34:00,
2013-10-17 12:50:00,65.7,65.1,29.96,NW,315,5.8,-999.0,98,-99.99,,,0.06,Acu-Link.com,2013-10-17 17:50:00,
2013-10-17 13:05:00,65.5,64.9,29.95,NW,315,6.3,-999.0,98,-99.99,,,0.06,Acu-Link.com,2013-10-17 18:05:00,
2013-10-17 13:20:00,64.6,64.0,29.95,WNW,292,6.8,-999.0,98,-99.99,,,0.06,Acu-Link.com,2013-10-17 18:20:00,
2013-10-17 13:35:00,64.2,63.6,29.94,North,0,4.2,-999.0,98,-99.99,,,0.06,Acu-Link.com,2013-10-17 18:35:00,
2013-10-17 13:50:00,64.6,64.0,29.94,WNW,292,3.7,-999.0,98,-99.99,,,0.06,Acu-Link.com,2013-10-17 18:50:00,
2013-10-17 14:05:00,65.1,64.5,29.93,North,0,3.2,-999.0,98,-99.99,,,0.06,Acu-Link.com,2013-10-17 19:05:00,
2013-10-17 14:20:00,64.2,63.6,29.93,West,270,2.7,-999.0,98,-99.99,,,0.06,Acu-Link.com,2013-10-17 19:20:00,
2013-10-17 14:36:00,64.6,64.0,29.93,NE,45,3.7,-999.0,98,-99.99,,,0.06,Acu-Link.com,2013-10-17 19:36:00,
2013-10-17 14:51:00,64.9,64.3,29.93,NNW,337,3.7,-999.0,98,-99.99,,,0.06,Acu-Link.com,2013-10-17 19:51:00,
2013-10-17 15:06:00,64.8,64.2,29.92,WNW,292,5.8,-999.0,98,-99.99,,,0.06,Acu-Link.com,2013-10-17 20:06:00,
2013-10-17 15:21:00,64.4,63.8,29.92,WNW,292,3.7,-999.0,98,-99.99,,,0.06,Acu-Link.com,2013-10-17 20:21:00,
2013-10-17 15:36:00,63.7,63.1,29.92,WNW,292,3.2,-999.0,98,-99.99,,,0.06,Acu-Link.com,2013-10-17 20:36:00,
2013-10-17 15:51:00,63.9,63.3,29.92,WNW,292,2.7,-999.0,98,-99.99,,,0.06,Acu-Link.com,2013-10-17 20:51:00,
2013-10-17 16:06:00,63.1,62.5,29.92,WNW,292,2.7,-999.0,98,-99.99,,,0.06,Acu-Link.com,2013-10-17 21:06:00,
2013-10-17 16:21:00,63.1,62.5,29.91,NNW,337,2.7,-999.0,98,-99.99,,,0.06,Acu-Link.com,2013-10-17 21:21:00,
2013-10-17 16:36:00,63.9,63.3,29.92,North,0,4.7,-999.0,98,-99.99,,,0.06,Acu-Link.com,2013-10-17 21:36:00,
2013-10-17 16:52:00,64.0,63.4,29.92,North,0,2.7,-999.0,98,-99.99,,,0.06,Acu-Link.com,2013-10-17 21:52:00,
2013-10-17 17:08:00,63.7,63.1,29.92,NE,45,2.2,-999.0,98,-99.99,,,0.06,Acu-Link.com,2013-10-17 22:08:00,
2013-10-17 17:23:00,64.0,63.4,29.92,NNE,22,3.2,-999.0,98,-99.99,,,0.06,Acu-Link.com,2013-10-17 22:23:00,
2013-10-17 17:38:00,65.5,64.9,29.92,NNE,22,0.0,-999.0,98,-99.99,,,0.06,Acu-Link.com,2013-10-17 22:38:00,
2013-10-17 17:53:00,67.3,66.7,29.92,NW,315,0.0,-999.0,98,-99.99,,,0.06,Acu-Link.com,2013-10-17 22:53:00,
2013-10-17 18:24:00,67.3,66.7,29.93,NNE,22,0.0,-999.0,98,-99.99,,,0.06,Acu-Link.com,2013-10-17 23:24:00,
2013-10-17 18:40:00,62.4,61.8,29.93,West,270,0.0,-999.0,98,-99.99,,,0.06,Acu-Link.com,2013-10-17 23:40:00,
2013-10-17 18:55:00,61.5,60.9,29.93,West,270,0.0,-999.0,98,-99.99,,,0.06,Acu-Link.com,2013-10-17 23:55:00,
2013-10-17 19:10:00,59.9,59.3,29.94,North,0,0.0,-999.0,98,-99.99,,,0.06,Acu-Link.com,2013-10-18 00:10:00,
2013-10-17 19:25:00,58.6,58.0,29.94,North,0,0.0,-999.0,98,-99.99,,,0.06,Acu-Link.com,2013-10-18 00:25:00,
2013-10-17 19:40:00,57.7,57.1,29.94,North,0,0.0,-999.0,98,-99.99,,,0.06,Acu-Link.com,2013-10-18 00:40:00,
2013-10-17 19:56:00,57.0,56.4,29.95,North,0,0.0,-999.0,98,-99.99,,,0.06,Acu-Link.com,2013-10-18 00:56:00,
2013-10-17 20:11:00,55.8,55.2,29.95,North,0,0.0,-999.0,98,-99.99,,,0.06,Acu-Link.com,2013-10-18 01:11:00,
2013-10-17 20:26:00,55.2,54.6,29.96,North,0,0.0,-999.0,98,-99.99,,,0.06,Acu-Link.com,2013-10-18 01:26:00,
2013-10-17 20:41:00,54.7,54.1,29.96,North,0,0.0,-999.0,98,-99.99,,,0.06,Acu-Link.com,2013-10-18 01:41:00,
2013-10-17 20:56:00,54.3,53.7,29.96,North,0,0.0,-999.0,98,-99.99,,,0.06,Acu-Link.com,2013-10-18 01:56:00,
2013-10-17 21:12:00,53.2,52.6,29.96,North,0,0.0,-999.0,98,-99.99,,,0.06,Acu-Link.com,2013-10-18 02:12:00,
2013-10-17 21:28:00,53.1,52.5,29.97,North,0,0.0,-999.0,98,-99.99,,,0.06,Acu-Link.com,2013-10-18 02:28:00,
2013-10-17 21:43:00,52.9,52.4,29.97,North,0,0.0,-999.0,98,-99.99,,,0.06,Acu-Link.com,2013-10-18 02:43:00,
2013-10-17 21:59:00,52.5,52.0,29.97,North,0,0.0,-999.0,98,-99.99,,,0.06,Acu-Link.com,2013-10-18 02:59:00,
2013-10-17 22:14:00,52.3,51.8,29.97,North,0,0.0,-999.0,98,-99.99,,,0.06,Acu-Link.com,2013-10-18 03:14:00,
2013-10-17 22:29:00,52.5,52.0,29.97,North,0,0.0,-999.0,98,-99.99,,,0.06,Acu-Link.com,2013-10-18 03:29:00,
2013-10-17 22:44:00,52.3,51.8,29.97,North,0,0.0,-999.0,98,-99.99,,,0.06,Acu-Link.com,2013-10-18 03:44:00,
2013-10-17 22:59:00,52.0,51.5,29.96,North,0,0.0,-999.0,98,-99.99,,,0.06,Acu-Link.com,2013-10-18 03:59:00,
2013-10-17 23:14:00,52.0,51.5,29.96,North,0,0.0,-999.0,98,-99.99,,,0.06,Acu-Link.com,2013-10-18 04:14:00,
2013-10-17 23:29:00,51.8,51.3,29.95,North,0,0.0,-999.0,98,-99.99,,,0.06,Acu-Link.com,2013-10-18 04:29:00,
2013-10-17 23:44:00,51.6,51.1,29.95,North,0,0.0,-999.0,98,-99.99,,,0.06,Acu-Link.com,2013-10-18 04:44:00,